Time,TemperatureF,DewpointF,PressureIn,WindDirection,WindDirectionDegrees,WindSpeedMPH,WindSpeedGustMPH,Humidity,HourlyPrecipIn,Conditions,Clouds,dailyrainin,SolarRadiationWatts/m^2,SoftwareType,DateUTC
2013-04-13 00:00:00,26.7,23.9,29.83,WNW,291,2.3,0.0,89,0.00,OVC,,0.16,0.0,WeatherDisplay:10.37,2013-04-13 05:00:00,
2013-04-13 00:05:00,26.7,23.6,29.83,NNW,327,0.0,0.4,88,0.00,RA,,0.00,0.0,WeatherDisplay:10.37,2013-04-13 05:05:00,
2013-04-13 00:10:00,26.7,23.6,29.83,WNW,295,0.0,0.0,88,0.00,RA,,0.00,0.0,WeatherDisplay:10.37,2013-04-13 05:10:00,
2013-04-13 00:15:00,26.7,23.6,29.83,West,277,2.3,0.0,88,0.00,OVC,,0.00,0.0,WeatherDisplay:10.37,2013-04-13 05:15:00,
2013-04-13 00:20:00,26.7,23.6,29.83,NNW,333,1.1,1.1,88,0.00,OVC,,0.00,0.0,WeatherDisplay:10.37,2013-04-13 05:20:00,
2013-04-13 00:25:00,26.7,23.6,29.83,WNW,284,1.1,1.1,88,0.00,OVC,,0.00,0.0,WeatherDisplay:10.37,2013-04-13 05:25:00,
2013-04-13 00:30:00,26.7,23.6,29.83,WNW,287,1.1,1.1,88,0.00,OVC,,0.00,0.0,WeatherDisplay:10.37,2013-04-13 05:30:00,
2013-04-13 00:35:00,26.6,23.5,29.83,WNW,299,0.0,0.0,88,0.00,OVC,,0.00,0.0,WeatherDisplay:10.37,2013-04-13 05:35:00,
2013-04-13 00:40:00,26.6,23.5,29.83,North,349,1.1,0.0,88,0.00,OVC,,0.00,0.0,WeatherDisplay:10.37,2013-04-13 05:40:00,
2013-04-13 00:45:00,26.6,23.5,29.83,North,351,1.1,0.0,88,0.00,OVC,,0.00,0.0,WeatherDisplay:10.37,2013-04-13 05:45:00,
2013-04-13 00:51:00,26.5,23.7,29.83,NE,54,1.1,0.0,89,0.00,OVC,,0.00,0.0,WeatherDisplay:10.37,2013-04-13 05:51:00,
2013-04-13 00:56:00,26.5,23.7,29.83,North,5,3.5,0.0,89,0.00,OVC,,0.00,0.0,WeatherDisplay:10.37,2013-04-13 05:56:00,
2013-04-13 01:01:00,26.5,23.7,29.83,North,355,3.5,3.5,89,0.00,OVC,,0.00,0.0,WeatherDisplay:10.37,2013-04-13 06:01:00,
2013-04-13 01:06:00,26.5,23.4,29.83,North,355,3.5,3.5,88,0.00,OVC,,0.00,0.0,WeatherDisplay:10.37,2013-04-13 06:06:00,
2013-04-13 01:11:00,26.5,23.4,29.83,North,355,1.1,0.0,88,0.00,OVC,,0.00,0.0,WeatherDisplay:10.37,2013-04-13 06:11:00,
2013-04-13 01:16:00,26.5,23.7,29.83,NNW,331,4.6,4.6,89,0.00,OVC,,0.00,0.0,WeatherDisplay:10.37,2013-04-13 06:16:00,
2013-04-13 01:21:00,26.5,23.4,29.83,NNW,338,1.1,1.1,88,0.00,OVC,,0.00,0.0,WeatherDisplay:10.37,2013-04-13 06:21:00,
2013-04-13 01:26:00,26.5,23.7,29.83,West,281,3.5,3.5,89,0.00,OVC,,0.00,0.0,WeatherDisplay:10.37,2013-04-13 06:26:00,
2013-04-13 01:31:00,26.5,23.4,29.83,West,269,2.3,2.3,88,0.00,OVC,,0.00,0.0,WeatherDisplay:10.37,2013-04-13 06:31:00,
2013-04-13 01:37:00,26.5,23.4,29.83,NNW,339,2.3,2.3,88,0.00,OVC,,0.00,0.0,WeatherDisplay:10.37,2013-04-13 06:37:00,
2013-04-13 01:42:00,26.4,23.3,29.83,West,259,1.1,0.0,88,0.00,OVC,,0.00,0.0,WeatherDisplay:10.37,2013-04-13 06:42:00,
2013-04-13 01:47:00,26.4,23.3,29.83,West,259,1.1,0.0,88,0.00,OVC,,0.00,0.0,WeatherDisplay:10.37,2013-04-13 06:47:00,
2013-04-13 01:52:00,26.3,23.2,29.83,West,265,1.1,0.0,88,0.00,OVC,,0.00,0.0,WeatherDisplay:10.37,2013-04-13 06:52:00,
2013-04-13 01:57:00,26.3,23.2,29.83,West,265,1.1,1.1,88,0.00,OVC,,0.00,0.0,WeatherDisplay:10.37,2013-04-13 06:57:00,
2013-04-13 02:02:00,26.3,23.2,29.83,NNE,21,2.0,2.0,88,0.00,OVC,,0.00,0.0,WeatherDisplay:10.37,2013-04-13 07:02:00,
2013-04-13 02:07:00,26.2,23.1,29.83,NNW,343,2.3,0.0,88,0.00,OVC,,0.00,0.0,WeatherDisplay:10.37,2013-04-13 07:07:00,
2013-04-13 02:12:00,26.2,23.1,29.83,NW,315,1.1,1.1,88,0.00,OVC,,0.00,0.0,WeatherDisplay:10.37,2013-04-13 07:12:00,
2013-04-13 02:17:00,26.1,23.0,29.83,West,261,1.1,1.1,88,0.00,OVC,,0.00,0.0,WeatherDisplay:10.37,2013-04-13 07:17:00,
2013-04-13 02:22:00,26.1,22.8,29.83,North,360,1.1,1.1,87,0.00,OVC,,0.00,0.0,WeatherDisplay:10.37,2013-04-13 07:22:00,
2013-04-13 02:28:00,26.1,22.8,29.83,North,355,1.1,0.0,87,0.00,OVC,,0.00,0.0,WeatherDisplay:10.37,2013-04-13 07:28:00,
2013-04-13 02:33:00,26.1,23.0,29.83,WSW,258,2.3,2.3,88,0.00,-SN,,0.00,0.0,WeatherDisplay:10.37,2013-04-13 07:33:00,
2013-04-13 02:38:00,26.1,23.0,29.83,SSE,162,1.1,0.0,88,0.00,-SN,,0.00,0.0,WeatherDisplay:10.37,2013-04-13 07:38:00,
2013-04-13 02:43:00,26.1,23.0,29.83,SSE,157,1.1,1.1,88,0.00,-SN,,0.00,0.0,WeatherDisplay:10.37,2013-04-13 07:43:00,
2013-04-13 02:48:00,26.1,22.8,29.83,SW,233,1.1,1.1,87,0.00,OVC,,0.00,0.0,WeatherDisplay:10.37,2013-04-13 07:48:00,
2013-04-13 02:53:00,26.2,22.9,29.83,NW,313,1.1,0.0,87,0.00,OVC,,0.00,0.0,WeatherDisplay:10.37,2013-04-13 07:53:00,
2013-04-13 02:59:00,26.2,22.9,29.83,West,272,4.6,4.6,87,0.00,OVC,,0.00,0.0,WeatherDisplay:10.37,2013-04-13 07:59:00,
2013-04-13 03:04:00,26.2,22.9,29.83,NNW,340,1.1,0.0,87,0.00,OVC,,0.00,0.0,WeatherDisplay:10.37,2013-04-13 08:04:00,
2013-04-13 03:09:00,26.3,23.0,29.83,NNW,341,0.0,0.0,87,0.00,OVC,,0.00,0.0,WeatherDisplay:10.37,2013-04-13 08:09:00,
2013-04-13 03:14:00,26.3,23.0,29.83,NNW,343,1.0,1.0,87,0.00,OVC,,0.00,0.0,WeatherDisplay:10.37,2013-04-13 08:14:00,
2013-04-13 03:19:00,26.5,23.2,29.83,NNW,343,1.1,1.1,87,0.01,RA,,0.01,0.0,WeatherDisplay:10.37,2013-04-13 08:19:00,
2013-04-13 03:25:00,26.5,22.9,29.83,NNW,343,0.0,0.0,86,0.01,RA,,0.01,0.0,WeatherDisplay:10.37,2013-04-13 08:25:00,
2013-04-13 03:30:00,26.5,22.9,29.83,NNW,332,2.3,2.3,86,0.01,OVC,,0.01,0.0,WeatherDisplay:10.37,2013-04-13 08:30:00,
2013-04-13 03:35:00,26.5,22.9,29.83,WNW,300,2.3,2.3,86,0.01,OVC,,0.01,0.0,WeatherDisplay:10.37,2013-04-13 08:35:00,
2013-04-13 03:40:00,26.3,22.7,29.83,West,278,1.1,1.1,86,0.01,OVC,,0.02,0.0,WeatherDisplay:10.37,2013-04-13 08:40:00,
2013-04-13 03:45:00,25.9,22.3,29.83,WSW,255,1.1,0.0,86,0.02,RA,,0.02,0.0,WeatherDisplay:10.37,2013-04-13 08:45:00,
2013-04-13 03:51:00,25.6,22.0,29.83,WNW,289,5.0,5.0,86,0.02,OVC,,0.02,0.0,WeatherDisplay:10.37,2013-04-13 08:51:00,
2013-04-13 03:57:00,25.4,22.1,29.83,WNW,286,1.1,1.1,87,0.02,OVC,,0.02,0.0,WeatherDisplay:10.37,2013-04-13 08:57:00,
2013-04-13 04:02:00,25.3,22.0,29.83,WSW,258,0.0,0.0,87,0.02,OVC,,0.02,0.0,WeatherDisplay:10.37,2013-04-13 09:02:00,
2013-04-13 04:07:00,25.2,21.9,29.83,WSW,258,1.1,1.1,87,0.02,OVC,,0.02,0.0,WeatherDisplay:10.37,2013-04-13 09:07:00,
2013-04-13 04:12:00,25.1,21.8,29.83,WSW,257,3.5,3.5,87,0.02,OVC,,0.02,0.0,WeatherDisplay:10.37,2013-04-13 09:12:00,
2013-04-13 04:17:00,25.0,21.9,29.83,SW,227,3.0,3.0,88,0.02,RA,,0.03,0.0,WeatherDisplay:10.37,2013-04-13 09:17:00,
2013-04-13 04:22:00,24.9,21.8,29.83,WNW,291,2.3,2.3,88,0.02,RA,,0.03,0.0,WeatherDisplay:10.37,2013-04-13 09:22:00,
2013-04-13 04:27:00,24.8,21.5,29.83,WNW,292,1.0,1.0,87,0.02,OVC,,0.03,0.0,WeatherDisplay:10.37,2013-04-13 09:27:00,
2013-04-13 04:33:00,24.7,21.7,29.83,WNW,296,1.1,0.0,88,0.02,-SN,,0.03,0.0,WeatherDisplay:10.37,2013-04-13 09:33:00,
2013-04-13 04:38:00,24.8,21.8,29.83,NNW,330,0.0,0.0,88,0.02,-SN,,0.03,0.0,WeatherDisplay:10.37,2013-04-13 09:38:00,
2013-04-13 04:44:00,24.8,21.8,29.83,NNW,327,0.0,0.0,88,0.01,-SN,,0.03,0.0,WeatherDisplay:10.37,2013-04-13 09:44:00,
2013-04-13 04:49:00,24.7,21.4,29.83,WNW,290,0.0,0.0,87,0.01,OVC,,0.03,0.0,WeatherDisplay:10.37,2013-04-13 09:49:00,
2013-04-13 04:54:00,24.6,21.3,29.84,WNW,284,1.1,1.1,87,0.02,RA,,0.04,0.0,WeatherDisplay:10.37,2013-04-13 09:54:00,
2013-04-13 04:59:00,24.5,21.2,29.83,WNW,285,1.1,1.1,87,0.02,RA,,0.04,0.0,WeatherDisplay:10.37,2013-04-13 09:59:00,
2013-04-13 05:04:00,24.4,21.1,29.84,WNW,285,1.1,0.0,87,0.02,OVC,,0.04,0.0,WeatherDisplay:10.37,2013-04-13 10:04:00,
2013-04-13 05:09:00,24.4,21.1,29.83,WNW,285,0.0,0.0,87,0.02,OVC,,0.04,0.0,WeatherDisplay:10.37,2013-04-13 10:09:00,
2013-04-13 05:15:00,24.2,20.9,29.84,WNW,300,0.0,0.0,87,0.01,OVC,,0.04,0.0,WeatherDisplay:10.37,2013-04-13 10:15:00,
2013-04-13 05:20:00,24.1,20.8,29.83,WNW,300,0.0,0.0,87,0.01,OVC,,0.04,0.0,WeatherDisplay:10.37,2013-04-13 10:20:00,
2013-04-13 05:27:00,23.8,20.5,29.84,WNW,290,2.0,2.0,87,0.01,OVC,,0.04,0.0,WeatherDisplay:10.37,2013-04-13 10:27:00,
2013-04-13 05:32:00,23.8,20.8,29.84,WNW,290,0.0,0.0,88,0.01,OVC,,0.04,0.0,WeatherDisplay:10.37,2013-04-13 10:32:00,
2013-04-13 05:38:00,23.9,21.1,29.84,NW,304,0.0,0.0,89,0.01,OVC,,0.04,0.0,WeatherDisplay:10.37,2013-04-13 10:38:00,
2013-04-13 05:43:00,24.0,21.2,29.84,NNE,24,3.5,0.0,89,0.01,OVC,,0.04,0.0,WeatherDisplay:10.37,2013-04-13 10:43:00,
2013-04-13 05:49:00,24.2,21.4,29.84,West,281,0.0,0.0,89,0.02,RA,,0.05,0.0,WeatherDisplay:10.37,2013-04-13 10:49:00,
2013-04-13 05:54:00,24.2,21.4,29.84,West,279,1.1,0.0,89,0.01,RA,,0.05,0.0,WeatherDisplay:10.37,2013-04-13 10:54:00,
2013-04-13 05:59:00,24.4,21.4,29.84,WNW,286,0.0,0.0,88,0.01,OVC,,0.05,0.0,WeatherDisplay:10.37,2013-04-13 10:59:00,
2013-04-13 06:04:00,24.4,21.4,29.84,WNW,286,0.0,0.0,88,0.01,OVC,,0.05,0.0,WeatherDisplay:10.37,2013-04-13 11:04:00,
2013-04-13 06:10:00,24.5,21.5,29.84,WNW,286,2.0,2.0,88,0.01,OVC,,0.05,0.0,WeatherDisplay:10.37,2013-04-13 11:10:00,
2013-04-13 06:15:00,24.6,21.6,29.84,WNW,286,0.0,0.1,88,0.01,OVC,,0.05,0.0,WeatherDisplay:10.37,2013-04-13 11:15:00,
2013-04-13 06:20:00,24.7,21.7,29.84,WNW,286,0.0,0.0,88,0.01,OVC,,0.05,0.0,WeatherDisplay:10.37,2013-04-13 11:20:00,
2013-04-13 06:26:00,24.8,21.5,29.84,WNW,286,0.0,0.0,87,0.01,OVC,,0.05,0.0,WeatherDisplay:10.37,2013-04-13 11:26:00,
2013-04-13 06:31:00,25.0,21.7,29.84,WNW,286,0.0,0.0,87,0.01,OVC,,0.05,0.0,WeatherDisplay:10.37,2013-04-13 11:31:00,
2013-04-13 06:37:00,24.9,21.6,29.85,WNW,286,0.0,0.0,87,0.01,OVC,,0.05,7.0,WeatherDisplay:10.37,2013-04-13 11:37:00,
2013-04-13 06:42:00,24.9,21.6,29.85,WNW,286,0.0,0.0,87,0.02,RA,,0.06,9.0,WeatherDisplay:10.37,2013-04-13 11:42:00,
2013-04-13 06:47:00,24.8,21.5,29.85,WNW,286,0.0,0.0,87,0.01,RA,,0.06,12.0,WeatherDisplay:10.37,2013-04-13 11:47:00,
2013-04-13 06:54:00,24.7,21.4,29.85,WNW,286,0.0,0.0,87,0.01,OVC,,0.06,18.0,WeatherDisplay:10.37,2013-04-13 11:54:00,
2013-04-13 07:00:00,24.8,21.5,29.85,North,5,2.3,0.0,87,0.01,OVC,,0.06,19.0,WeatherDisplay:10.37,2013-04-13 12:00:00,
2013-04-13 07:05:00,24.8,21.8,29.86,SW,215,2.0,2.0,88,0.01,-SN,,0.06,23.0,WeatherDisplay:10.37,2013-04-13 12:05:00,
2013-04-13 07:10:00,24.9,21.6,29.86,SW,215,2.3,2.3,87,0.01,-SN,,0.06,25.0,WeatherDisplay:10.37,2013-04-13 12:10:00,
2013-04-13 07:15:00,25.1,21.8,29.86,SW,215,0.0,0.0,87,0.01,-SN,,0.06,26.0,WeatherDisplay:10.37,2013-04-13 12:15:00,
2013-04-13 07:20:00,25.2,21.9,29.86,SW,234,0.0,0.0,87,0.01,-SN,,0.06,26.0,WeatherDisplay:10.37,2013-04-13 12:20:00,
2013-04-13 07:25:00,25.2,21.9,29.86,West,266,3.0,3.0,87,0.01,-SN,,0.06,26.0,WeatherDisplay:10.37,2013-04-13 12:25:00,
2013-04-13 07:30:00,25.3,22.0,29.86,West,271,0.0,0.0,87,0.01,-SN,,0.06,26.0,WeatherDisplay:10.37,2013-04-13 12:30:00,
2013-04-13 07:35:00,25.2,21.9,29.86,West,275,1.1,1.1,87,0.01,-SN,,0.06,30.0,WeatherDisplay:10.37,2013-04-13 12:35:00,
2013-04-13 07:40:00,25.2,21.9,29.87,West,275,0.0,0.0,87,0.00,-SN,,0.06,37.0,WeatherDisplay:10.37,2013-04-13 12:40:00,
2013-04-13 07:46:00,25.2,21.9,29.87,West,281,1.1,0.0,87,0.01,-SN,,0.07,44.0,WeatherDisplay:10.37,2013-04-13 12:46:00,
2013-04-13 07:52:00,25.5,22.2,29.87,West,281,0.0,0.0,87,0.01,-SN,,0.07,49.0,WeatherDisplay:10.37,2013-04-13 12:52:00,
2013-04-13 07:57:00,25.6,22.0,29.87,WNW,282,2.3,2.3,86,0.01,-SN,,0.07,49.0,WeatherDisplay:10.37,2013-04-13 12:57:00,
2013-04-13 08:03:00,25.8,22.2,29.87,WNW,283,1.1,1.1,86,0.01,-SN,,0.07,47.0,WeatherDisplay:10.37,2013-04-13 13:03:00,
2013-04-13 08:08:00,26.1,22.5,29.87,WNW,283,0.0,0.0,86,0.01,-SN,,0.07,47.0,WeatherDisplay:10.37,2013-04-13 13:08:00,
2013-04-13 08:13:00,26.0,22.1,29.87,WSW,251,0.0,0.0,85,0.01,-SN,,0.07,47.0,WeatherDisplay:10.37,2013-04-13 13:13:00,
2013-04-13 08:18:00,25.9,22.3,29.87,WSW,251,2.3,2.3,86,0.01,BKN,,0.07,56.0,WeatherDisplay:10.37,2013-04-13 13:18:00,
2013-04-13 08:24:00,25.9,22.3,29.87,WSW,248,1.1,0.0,86,0.01,BKN,,0.07,65.0,WeatherDisplay:10.37,2013-04-13 13:24:00,
2013-04-13 08:30:00,26.3,22.7,29.87,NW,322,2.3,0.0,86,0.01,BKN,,0.07,70.0,WeatherDisplay:10.37,2013-04-13 13:30:00,
2013-04-13 08:35:00,26.7,22.8,29.87,WSW,250,3.5,3.5,85,0.01,BKN,,0.07,72.0,WeatherDisplay:10.37,2013-04-13 13:35:00,
2013-04-13 08:40:00,26.7,22.5,29.87,WNW,284,1.0,1.0,84,0.01,BKN,,0.07,74.0,WeatherDisplay:10.37,2013-04-13 13:40:00,
2013-04-13 08:45:00,26.9,22.7,29.87,NW,304,1.1,1.1,84,0.00,BKN,,0.07,74.0,WeatherDisplay:10.37,2013-04-13 13:45:00,
2013-04-13 08:50:00,27.0,22.5,29.87,NW,314,4.6,4.6,83,0.00,BKN,,0.07,65.0,WeatherDisplay:10.37,2013-04-13 13:50:00,
2013-04-13 08:55:00,27.1,22.3,29.87,WNW,291,1.1,0.0,82,0.00,BKN,,0.07,69.0,WeatherDisplay:10.37,2013-04-13 13:55:00,
2013-04-13 09:00:00,27.2,22.4,29.87,WSW,249,3.5,3.5,82,0.00,BKN,,0.07,90.0,WeatherDisplay:10.37,2013-04-13 14:00:00,
2013-04-13 09:05:00,27.4,22.6,29.87,NNE,13,3.5,3.5,82,0.00,OVC,,0.07,113.0,WeatherDisplay:10.37,2013-04-13 14:05:00,
2013-04-13 09:12:00,27.8,23.0,29.87,SSW,211,3.5,0.0,82,0.00,OVC,,0.07,128.0,WeatherDisplay:10.37,2013-04-13 14:12:00,
2013-04-13 09:17:00,28.1,22.7,29.87,WSW,246,2.3,2.3,80,0.00,OVC,,0.07,125.0,WeatherDisplay:10.37,2013-04-13 14:17:00,
2013-04-13 09:22:00,28.3,22.9,29.86,West,263,3.5,0.0,80,0.00,OVC,,0.07,113.0,WeatherDisplay:10.37,2013-04-13 14:22:00,
2013-04-13 09:27:00,28.5,23.1,29.86,SSW,200,1.1,1.1,80,0.00,OVC,,0.07,121.0,WeatherDisplay:10.37,2013-04-13 14:27:00,
2013-04-13 09:33:00,28.7,22.7,29.86,SSW,206,3.5,0.0,78,0.00,OVC,,0.07,195.0,WeatherDisplay:10.37,2013-04-13 14:33:00,
2013-04-13 09:38:00,28.9,22.9,29.86,West,269,1.1,0.0,78,0.00,OVC,,0.07,169.0,WeatherDisplay:10.37,2013-04-13 14:38:00,
2013-04-13 09:43:00,29.1,22.8,29.87,WSW,257,3.5,3.5,77,0.00,OVC,,0.07,114.0,WeatherDisplay:10.37,2013-04-13 14:43:00,
2013-04-13 09:48:00,29.2,22.9,29.86,West,280,3.5,3.5,77,0.00,OVC,,0.07,155.0,WeatherDisplay:10.37,2013-04-13 14:48:00,
2013-04-13 09:53:00,29.2,22.6,29.86,West,259,4.6,4.6,76,0.00,OVC,,0.07,151.0,WeatherDisplay:10.37,2013-04-13 14:53:00,
2013-04-13 09:59:00,29.0,22.4,29.86,WSW,240,5.0,5.0,76,0.00,OVC,,0.07,202.0,WeatherDisplay:10.37,2013-04-13 14:59:00,
2013-04-13 10:04:00,29.2,22.9,29.86,West,279,5.8,5.8,77,0.00,-SN,,0.07,167.0,WeatherDisplay:10.37,2013-04-13 15:04:00,
2013-04-13 10:09:00,29.4,23.1,29.87,West,259,3.5,3.5,77,0.00,-SN,,0.07,269.0,WeatherDisplay:10.37,2013-04-13 15:09:00,
2013-04-13 10:14:00,30.0,23.4,29.87,NNE,24,3.5,3.5,76,0.00,-SN,,0.07,216.0,WeatherDisplay:10.37,2013-04-13 15:14:00,
2013-04-13 10:19:00,29.9,22.6,29.87,WSW,239,3.5,3.5,74,0.00,-SN,,0.07,236.0,WeatherDisplay:10.37,2013-04-13 15:19:00,
2013-04-13 10:24:00,30.1,23.1,29.87,SW,215,4.0,4.0,75,0.00,-SN,,0.07,213.0,WeatherDisplay:10.37,2013-04-13 15:24:00,
2013-04-13 10:29:00,30.2,23.5,29.87,North,5,2.3,2.3,76,0.00,-SN,,0.07,253.0,WeatherDisplay:10.37,2013-04-13 15:29:00,
2013-04-13 10:34:00,30.6,23.6,29.87,WSW,247,0.0,0.0,75,0.00,-SN,,0.07,216.0,WeatherDisplay:10.37,2013-04-13 15:34:00,
2013-04-13 10:39:00,31.0,23.4,29.87,NE,42,1.1,0.0,73,0.00,-SN,,0.07,223.0,WeatherDisplay:10.37,2013-04-13 15:39:00,
2013-04-13 10:44:00,31.2,23.5,29.87,West,273,2.0,2.0,73,0.00,-SN,,0.07,188.0,WeatherDisplay:10.37,2013-04-13 15:44:00,
2013-04-13 10:50:00,30.8,22.2,29.88,WNW,294,8.1,8.1,70,0.00,-SN,,0.07,330.0,WeatherDisplay:10.37,2013-04-13 15:50:00,
2013-04-13 10:55:00,30.8,21.8,29.87,SSW,213,3.5,3.5,69,0.00,-SN,,0.07,283.0,WeatherDisplay:10.37,2013-04-13 15:55:00,
2013-04-13 11:00:00,31.0,22.7,29.87,NW,317,2.3,2.3,71,0.00,-SN,,0.07,202.0,WeatherDisplay:10.37,2013-04-13 16:00:00,
2013-04-13 11:05:00,31.3,22.6,29.87,WSW,252,3.5,3.5,70,0.00,OVC,,0.07,171.0,WeatherDisplay:10.37,2013-04-13 16:05:00,
2013-04-13 11:10:00,31.3,22.6,29.88,WSW,254,3.5,3.5,70,0.00,OVC,,0.07,183.0,WeatherDisplay:10.37,2013-04-13 16:10:00,
2013-04-13 11:15:00,31.2,22.5,29.88,West,266,6.9,6.9,70,0.00,OVC,,0.07,200.0,WeatherDisplay:10.37,2013-04-13 16:15:00,
2013-04-13 11:20:00,31.2,23.2,29.88,WSW,241,4.6,0.0,72,0.00,OVC,,0.07,192.0,WeatherDisplay:10.37,2013-04-13 16:20:00,
2013-04-13 11:25:00,31.4,23.1,29.88,West,271,2.3,2.3,71,0.00,OVC,,0.07,227.0,WeatherDisplay:10.37,2013-04-13 16:25:00,
2013-04-13 11:30:00,31.4,21.7,29.88,WSW,250,3.5,3.5,67,0.00,OVC,,0.07,257.0,WeatherDisplay:10.37,2013-04-13 16:30:00,
2013-04-13 11:35:00,31.5,22.8,29.88,NNW,335,1.1,1.1,70,0.00,OVC,,0.07,255.0,WeatherDisplay:10.37,2013-04-13 16:35:00,
2013-04-13 11:40:00,31.8,22.8,29.88,NNE,26,3.5,3.5,69,0.00,OVC,,0.07,202.0,WeatherDisplay:10.37,2013-04-13 16:40:00,
2013-04-13 11:47:00,32.3,22.6,29.89,WSW,238,3.0,3.0,67,0.00,-SN,,0.07,230.0,WeatherDisplay:10.37,2013-04-13 16:47:00,
2013-04-13 11:52:00,32.5,23.5,29.88,West,265,2.3,2.3,69,0.00,-SN,,0.07,204.0,WeatherDisplay:10.37,2013-04-13 16:52:00,
2013-04-13 11:57:00,32.5,22.8,29.89,NE,34,1.1,1.1,67,0.00,-SN,,0.07,179.0,WeatherDisplay:10.37,2013-04-13 16:57:00,
2013-04-13 12:02:00,32.2,23.2,29.89,NW,308,6.0,6.0,69,0.00,-SN,,0.07,155.0,WeatherDisplay:10.37,2013-04-13 17:02:00,
2013-04-13 12:08:00,31.8,22.1,29.89,NNE,19,2.3,2.3,67,0.00,-SN,,0.07,160.0,WeatherDisplay:10.37,2013-04-13 17:08:00,
2013-04-13 12:14:00,31.7,22.7,29.89,NNE,15,3.5,0.0,69,0.00,-SN,,0.07,193.0,WeatherDisplay:10.37,2013-04-13 17:14:00,
2013-04-13 12:19:00,31.8,23.1,29.89,NE,38,4.0,4.0,70,0.00,-SN,,0.07,243.0,WeatherDisplay:10.37,2013-04-13 17:19:00,
2013-04-13 12:24:00,31.7,23.0,29.89,WSW,257,3.5,3.5,70,0.00,-SN,,0.07,264.0,WeatherDisplay:10.37,2013-04-13 17:24:00,
2013-04-13 12:30:00,31.7,22.7,29.89,WSW,240,3.5,3.5,69,0.00,-SN,,0.07,294.0,WeatherDisplay:10.37,2013-04-13 17:30:00,
2013-04-13 12:35:00,32.2,23.8,29.89,North,5,2.0,2.0,71,0.00,-SN,,0.07,301.0,WeatherDisplay:10.37,2013-04-13 17:35:00,
2013-04-13 12:40:00,32.6,23.9,29.89,West,279,2.0,2.0,70,0.00,-SN,,0.07,329.0,WeatherDisplay:10.37,2013-04-13 17:40:00,
2013-04-13 12:46:00,32.8,24.1,29.90,West,268,4.0,4.0,70,0.00,-SN,,0.07,390.0,WeatherDisplay:10.37,2013-04-13 17:46:00,
2013-04-13 12:51:00,32.9,23.5,29.89,WNW,286,3.5,3.5,68,0.00,-SN,,0.07,399.0,WeatherDisplay:10.37,2013-04-13 17:51:00,
2013-04-13 12:56:00,33.0,23.6,29.89,WNW,286,3.5,3.5,68,0.00,-SN,,0.07,454.0,WeatherDisplay:10.37,2013-04-13 17:56:00,
2013-04-13 13:02:00,33.4,23.6,29.89,WSW,247,5.0,5.0,67,0.00,OVC,,0.07,752.0,WeatherDisplay:10.37,2013-04-13 18:02:00,
2013-04-13 13:07:00,33.7,23.2,29.89,WSW,257,6.9,6.9,65,0.00,OVC,,0.07,589.0,WeatherDisplay:10.37,2013-04-13 18:07:00,
2013-04-13 13:12:00,33.9,23.4,29.89,WSW,247,4.6,4.6,65,0.00,OVC,,0.07,410.0,WeatherDisplay:10.37,2013-04-13 18:12:00,
2013-04-13 13:17:00,33.8,22.9,29.89,SSW,202,4.6,4.6,64,0.00,OVC,,0.07,378.0,WeatherDisplay:10.37,2013-04-13 18:17:00,
2013-04-13 13:23:00,34.2,23.7,29.89,WSW,247,3.5,3.5,65,0.00,OVC,,0.07,373.0,WeatherDisplay:10.37,2013-04-13 18:23:00,
2013-04-13 13:27:00,34.2,22.1,29.89,West,272,5.0,5.0,61,0.00,OVC,,0.07,237.0,WeatherDisplay:10.37,2013-04-13 18:27:00,
2013-04-13 13:32:00,33.4,22.1,29.89,NW,324,1.1,1.1,63,0.00,OVC,,0.07,193.0,WeatherDisplay:10.37,2013-04-13 18:32:00,
2013-04-13 13:37:00,33.2,23.1,29.90,NW,323,3.5,3.5,66,0.00,OVC,,0.07,176.0,WeatherDisplay:10.37,2013-04-13 18:37:00,
2013-04-13 13:42:00,32.9,22.4,29.90,NNW,344,4.6,4.6,65,0.00,OVC,,0.07,171.0,WeatherDisplay:10.37,2013-04-13 18:42:00,
2013-04-13 13:47:00,32.6,21.8,29.90,SW,219,3.5,3.5,64,0.00,OVC,,0.07,185.0,WeatherDisplay:10.37,2013-04-13 18:47:00,
2013-04-13 13:53:00,32.5,22.0,29.90,NW,306,4.0,4.0,65,0.00,OVC,,0.07,199.0,WeatherDisplay:10.37,2013-04-13 18:53:00,
2013-04-13 13:58:00,32.2,21.7,29.90,WSW,248,2.3,2.3,65,0.00,OVC,,0.07,195.0,WeatherDisplay:10.37,2013-04-13 18:58:00,
2013-04-13 14:03:00,32.3,22.6,29.90,West,269,4.6,4.6,67,0.00,OVC,,0.07,211.0,WeatherDisplay:10.37,2013-04-13 19:03:00,
2013-04-13 14:08:00,32.5,22.4,29.90,NW,305,3.5,3.5,66,0.00,OVC,,0.07,225.0,WeatherDisplay:10.37,2013-04-13 19:08:00,
2013-04-13 14:13:00,32.8,22.7,29.90,WSW,243,5.0,5.0,66,0.00,OVC,,0.07,241.0,WeatherDisplay:10.37,2013-04-13 19:13:00,
2013-04-13 14:18:00,32.9,22.8,29.90,WSW,242,1.1,1.1,66,0.00,OVC,,0.07,257.0,WeatherDisplay:10.37,2013-04-13 19:18:00,
2013-04-13 14:23:00,32.9,22.4,29.90,West,265,3.5,3.5,65,0.00,OVC,,0.07,274.0,WeatherDisplay:10.37,2013-04-13 19:23:00,
2013-04-13 14:28:00,33.1,22.6,29.90,WSW,237,3.5,3.5,65,0.00,OVC,,0.07,318.0,WeatherDisplay:10.37,2013-04-13 19:28:00,
2013-04-13 14:33:00,33.5,22.2,29.90,WSW,245,3.5,3.5,63,0.00,OVC,,0.07,374.0,WeatherDisplay:10.37,2013-04-13 19:33:00,
2013-04-13 14:38:00,33.9,22.6,29.90,SSE,157,4.6,4.6,63,0.00,OVC,,0.07,385.0,WeatherDisplay:10.37,2013-04-13 19:38:00,
2013-04-13 14:43:00,34.3,22.6,29.90,SSW,211,2.3,2.3,62,0.00,OVC,,0.07,401.0,WeatherDisplay:10.37,2013-04-13 19:43:00,
2013-04-13 14:48:00,34.8,22.7,29.91,SW,219,4.0,4.0,61,0.00,OVC,,0.07,376.0,WeatherDisplay:10.37,2013-04-13 19:48:00,
2013-04-13 14:53:00,35.0,22.5,29.91,NW,317,3.5,3.7,60,0.00,OVC,,0.07,336.0,WeatherDisplay:10.37,2013-04-13 19:53:00,
2013-04-13 14:58:00,34.9,21.6,29.91,WNW,294,3.5,3.5,58,0.00,OVC,,0.07,257.0,WeatherDisplay:10.37,2013-04-13 19:58:00,
2013-04-13 15:03:00,34.6,22.1,29.91,North,5,1.1,1.1,60,0.00,-SN,,0.07,206.0,WeatherDisplay:10.37,2013-04-13 20:03:00,
2013-04-13 15:08:00,34.5,21.6,29.91,North,5,1.1,1.1,59,0.00,-SN,,0.07,169.0,WeatherDisplay:10.37,2013-04-13 20:08:00,
2013-04-13 15:13:00,34.3,22.2,29.91,WSW,253,4.6,4.6,61,0.00,-SN,,0.07,172.0,WeatherDisplay:10.37,2013-04-13 20:13:00,
2013-04-13 15:18:00,34.1,21.7,29.91,NW,326,4.6,4.6,60,0.00,-SN,,0.07,181.0,WeatherDisplay:10.37,2013-04-13 20:18:00,
2013-04-13 15:23:00,34.0,21.6,29.91,NNE,28,2.3,2.3,60,0.00,-SN,,0.07,207.0,WeatherDisplay:10.37,2013-04-13 20:23:00,
2013-04-13 15:28:00,33.9,21.9,29.91,SW,235,5.8,5.8,61,0.00,-SN,,0.07,246.0,WeatherDisplay:10.37,2013-04-13 20:28:00,
2013-04-13 15:33:00,34.1,22.0,29.91,NNE,17,1.1,0.0,61,0.00,-SN,,0.07,288.0,WeatherDisplay:10.37,2013-04-13 20:33:00,
2013-04-13 15:38:00,34.4,23.1,29.91,NNE,15,2.3,2.3,63,0.00,-SN,,0.07,292.0,WeatherDisplay:10.37,2013-04-13 20:38:00,
2013-04-13 15:43:00,34.8,22.7,29.91,NNE,22,2.3,2.3,61,0.00,-SN,,0.07,410.0,WeatherDisplay:10.37,2013-04-13 20:43:00,
2013-04-13 15:48:00,35.4,22.9,29.91,North,360,1.1,1.1,60,0.00,-SN,,0.07,229.0,WeatherDisplay:10.37,2013-04-13 20:48:00,
2013-04-13 15:53:00,35.8,24.0,29.91,North,5,0.0,0.0,62,0.00,-SN,,0.07,592.0,WeatherDisplay:10.37,2013-04-13 20:53:00,
2013-04-13 15:58:00,36.8,23.4,29.91,West,273,3.5,3.5,58,0.00,-SN,,0.07,538.0,WeatherDisplay:10.37,2013-04-13 20:58:00,
2013-04-13 16:03:00,36.9,22.7,29.91,South,183,3.5,3.5,56,0.00,OVC,,0.07,568.0,WeatherDisplay:10.37,2013-04-13 21:03:00,
2013-04-13 16:08:00,37.4,24.0,29.91,WSW,255,3.5,3.5,58,0.00,OVC,,0.07,747.0,WeatherDisplay:10.37,2013-04-13 21:08:00,
2013-04-13 16:13:00,37.8,23.5,29.91,NNE,28,3.5,3.5,56,0.00,OVC,,0.07,162.0,WeatherDisplay:10.37,2013-04-13 21:13:00,
2013-04-13 16:18:00,37.3,23.0,29.91,NNE,25,1.1,1.1,56,0.00,OVC,,0.07,163.0,WeatherDisplay:10.37,2013-04-13 21:18:00,
2013-04-13 16:23:00,36.7,22.0,29.91,West,269,3.5,3.5,55,0.00,OVC,,0.07,139.0,WeatherDisplay:10.37,2013-04-13 21:23:00,
2013-04-13 16:28:00,36.0,22.2,29.91,NNE,17,2.3,2.3,57,0.00,OVC,,0.07,141.0,WeatherDisplay:10.37,2013-04-13 21:28:00,
2013-04-13 16:33:00,35.5,22.2,29.92,NNW,329,0.0,0.0,58,0.00,OVC,,0.07,67.0,WeatherDisplay:10.37,2013-04-13 21:33:00,
2013-04-13 16:39:00,35.0,22.5,29.92,NNW,337,2.3,2.3,60,0.00,OVC,,0.07,97.0,WeatherDisplay:10.37,2013-04-13 21:39:00,
2013-04-13 16:44:00,35.0,22.9,29.92,NNE,29,3.5,3.5,61,0.00,OVC,,0.07,111.0,WeatherDisplay:10.37,2013-04-13 21:44:00,
2013-04-13 16:49:00,34.8,22.7,29.92,NE,46,1.1,0.0,61,0.00,OVC,,0.07,121.0,WeatherDisplay:10.37,2013-04-13 21:49:00,
2013-04-13 16:54:00,35.1,23.4,29.92,West,264,3.5,3.5,62,0.00,OVC,,0.07,494.0,WeatherDisplay:10.37,2013-04-13 21:54:00,
2013-04-13 16:59:00,36.1,25.1,29.92,North,9,1.1,1.1,64,0.00,OVC,,0.07,654.0,WeatherDisplay:10.37,2013-04-13 21:59:00,
2013-04-13 17:04:00,37.2,25.0,29.92,North,355,2.3,2.3,61,0.00,OVC,,0.07,663.0,WeatherDisplay:10.37,2013-04-13 22:04:00,
2013-04-13 17:09:00,37.8,24.7,29.92,North,5,3.5,3.5,59,0.00,OVC,,0.07,265.0,WeatherDisplay:10.37,2013-04-13 22:09:00,
2013-04-13 17:14:00,37.1,24.9,29.92,WSW,257,2.3,2.3,61,0.00,OVC,,0.07,250.0,WeatherDisplay:10.37,2013-04-13 22:14:00,
2013-04-13 17:19:00,36.6,23.2,29.92,North,355,6.9,6.9,58,0.00,OVC,,0.07,364.0,WeatherDisplay:10.37,2013-04-13 22:19:00,
2013-04-13 17:24:00,36.6,23.6,29.92,NE,34,5.8,5.8,59,0.00,OVC,,0.07,339.0,WeatherDisplay:10.37,2013-04-13 22:24:00,
2013-04-13 17:29:00,36.5,23.9,29.93,ENE,69,3.5,3.5,60,0.00,OVC,,0.07,163.0,WeatherDisplay:10.37,2013-04-13 22:29:00,
2013-04-13 17:34:00,36.0,23.4,29.93,WSW,249,4.6,4.6,60,0.00,OVC,,0.07,153.0,WeatherDisplay:10.37,2013-04-13 22:34:00,
2013-04-13 17:39:00,35.6,23.9,29.93,SW,233,3.5,3.5,62,0.00,OVC,,0.07,174.0,WeatherDisplay:10.37,2013-04-13 22:39:00,
2013-04-13 17:44:00,35.3,23.2,29.93,WSW,255,3.5,3.5,61,0.00,OVC,,0.07,169.0,WeatherDisplay:10.37,2013-04-13 22:44:00,
2013-04-13 17:49:00,35.0,22.9,29.93,SW,227,4.6,4.6,61,0.00,OVC,,0.07,178.0,WeatherDisplay:10.37,2013-04-13 22:49:00,
2013-04-13 17:54:00,35.0,23.7,29.94,NE,38,3.5,3.5,63,0.00,OVC,,0.07,195.0,WeatherDisplay:10.37,2013-04-13 22:54:00,
2013-04-13 17:59:00,35.2,23.5,29.93,North,5,2.3,2.3,62,0.00,OVC,,0.07,176.0,WeatherDisplay:10.37,2013-04-13 22:59:00,
2013-04-13 18:04:00,35.3,24.0,29.93,WNW,294,2.0,2.0,63,0.00,OVC,,0.07,186.0,WeatherDisplay:10.37,2013-04-13 23:04:00,
2013-04-13 18:09:00,35.1,23.0,29.94,West,281,3.5,3.5,61,0.00,OVC,,0.07,76.0,WeatherDisplay:10.37,2013-04-13 23:09:00,
2013-04-13 18:14:00,34.6,23.7,29.94,West,279,2.3,2.3,64,0.00,OVC,,0.07,76.0,WeatherDisplay:10.37,2013-04-13 23:14:00,
2013-04-13 18:19:00,34.2,23.7,29.94,WSW,242,9.2,9.2,65,0.00,OVC,,0.07,86.0,WeatherDisplay:10.37,2013-04-13 23:19:00,
2013-04-13 18:24:00,34.0,23.5,29.94,WSW,248,3.5,3.5,65,0.00,OVC,,0.07,90.0,WeatherDisplay:10.37,2013-04-13 23:24:00,
2013-04-13 18:29:00,33.9,23.7,29.94,SW,228,2.3,2.3,66,0.00,OVC,,0.07,84.0,WeatherDisplay:10.37,2013-04-13 23:29:00,
2013-04-13 18:34:00,33.9,24.1,29.94,West,279,2.3,0.0,67,0.00,OVC,,0.07,72.0,WeatherDisplay:10.37,2013-04-13 23:34:00,
2013-04-13 18:39:00,33.8,24.0,29.95,West,279,2.3,2.3,67,0.00,OVC,,0.07,56.0,WeatherDisplay:10.37,2013-04-13 23:39:00,
2013-04-13 18:44:00,33.5,23.7,29.95,WSW,252,3.5,3.5,67,0.00,OVC,,0.07,46.0,WeatherDisplay:10.37,2013-04-13 23:44:00,
2013-04-13 18:49:00,33.3,23.5,29.95,WSW,246,2.3,2.3,67,0.00,OVC,,0.07,30.0,WeatherDisplay:10.37,2013-04-13 23:49:00,
2013-04-13 18:54:00,33.1,24.0,29.95,WNW,288,0.0,0.0,69,0.00,OVC,,0.07,28.0,WeatherDisplay:10.37,2013-04-13 23:54:00,
2013-04-13 18:59:00,32.9,24.2,29.95,West,272,0.0,0.0,70,0.00,OVC,,0.07,26.0,WeatherDisplay:10.37,2013-04-13 23:59:00,
2013-04-13 19:04:00,32.8,24.4,29.95,West,272,0.0,0.0,71,0.00,-SN,,0.07,26.0,WeatherDisplay:10.37,2013-04-14 00:04:00,
2013-04-13 19:09:00,32.6,24.2,29.95,NNW,333,3.0,3.0,71,0.00,-SN,,0.07,28.0,WeatherDisplay:10.37,2013-04-14 00:09:00,
2013-04-13 19:15:00,32.4,24.0,29.95,WNW,289,0.0,0.0,71,0.00,-SN,,0.07,19.0,WeatherDisplay:10.37,2013-04-14 00:15:00,
2013-04-13 19:20:00,32.4,24.0,29.95,WNW,290,0.0,0.0,71,0.00,-SN,,0.07,18.0,WeatherDisplay:10.37,2013-04-14 00:20:00,
2013-04-13 19:25:00,32.2,24.5,29.95,WNW,290,0.0,0.0,73,0.00,-SN,,0.07,11.0,WeatherDisplay:10.37,2013-04-14 00:25:00,
2013-04-13 19:30:00,32.1,24.4,29.95,WNW,290,0.0,0.0,73,0.00,-SN,,0.07,7.0,WeatherDisplay:10.37,2013-04-14 00:30:00,
2013-04-13 19:35:00,31.8,25.1,29.96,WNW,290,0.0,0.0,76,0.00,-SN,,0.07,5.0,WeatherDisplay:10.37,2013-04-14 00:35:00,
2013-04-13 19:40:00,31.4,25.0,29.96,WNW,290,0.0,0.0,77,0.00,-SN,,0.07,5.0,WeatherDisplay:10.37,2013-04-14 00:40:00,
2013-04-13 19:45:00,31.0,24.6,29.96,WNW,290,0.0,0.0,77,0.00,-SN,,0.07,0.0,WeatherDisplay:10.37,2013-04-14 00:45:00,
2013-04-13 19:50:00,30.6,24.2,29.96,WNW,290,0.0,0.0,77,0.00,-SN,,0.07,0.0,WeatherDisplay:10.37,2013-04-14 00:50:00,
2013-04-13 19:55:00,30.5,24.5,29.96,WNW,290,0.0,0.0,78,0.00,-SN,,0.07,0.0,WeatherDisplay:10.37,2013-04-14 00:55:00,
2013-04-13 20:00:00,30.3,24.0,29.96,WNW,290,0.0,0.0,77,0.00,-SN,,0.07,0.0,WeatherDisplay:10.37,2013-04-14 01:00:00,
2013-04-13 20:05:00,30.0,24.6,29.96,WNW,290,0.0,0.0,80,0.00,BKN,,0.07,0.0,WeatherDisplay:10.37,2013-04-14 01:05:00,
2013-04-13 20:10:00,29.7,24.6,29.96,WNW,290,0.0,0.0,81,0.00,BKN,,0.07,0.0,WeatherDisplay:10.37,2013-04-14 01:10:00,
2013-04-13 20:15:00,29.4,24.3,29.97,WNW,290,0.0,0.0,81,0.00,BKN,,0.07,0.0,WeatherDisplay:10.37,2013-04-14 01:15:00,
2013-04-13 20:20:00,29.2,24.1,29.97,WNW,290,0.0,0.0,81,0.00,BKN,,0.07,0.0,WeatherDisplay:10.37,2013-04-14 01:20:00,
2013-04-13 20:25:00,29.1,24.0,29.96,WNW,290,0.0,0.0,81,0.00,BKN,,0.07,0.0,WeatherDisplay:10.37,2013-04-14 01:25:00,
2013-04-13 20:30:00,28.9,23.5,29.97,WNW,290,0.0,0.0,80,0.00,BKN,,0.07,0.0,WeatherDisplay:10.37,2013-04-14 01:30:00,
2013-04-13 20:35:00,28.7,23.9,29.97,WNW,290,0.0,0.0,82,0.00,BKN,,0.07,0.0,WeatherDisplay:10.37,2013-04-14 01:35:00,
2013-04-13 20:40:00,28.5,23.7,29.96,WNW,290,0.0,0.0,82,0.00,BKN,,0.07,0.0,WeatherDisplay:10.37,2013-04-14 01:40:00,
2013-04-13 20:45:00,28.2,23.7,29.97,WNW,290,0.0,0.0,83,0.00,BKN,,0.07,0.0,WeatherDisplay:10.37,2013-04-14 01:45:00,
2013-04-13 20:50:00,27.8,23.6,29.97,WNW,290,0.0,0.0,84,0.00,BKN,,0.07,0.0,WeatherDisplay:10.37,2013-04-14 01:50:00,
2013-04-13 20:55:00,27.6,23.1,29.97,WNW,290,0.0,0.0,83,0.00,BKN,,0.07,0.0,WeatherDisplay:10.37,2013-04-14 01:55:00,
2013-04-13 21:00:00,27.3,23.1,29.98,WNW,290,0.0,0.0,84,0.00,BKN,,0.07,0.0,WeatherDisplay:10.37,2013-04-14 02:00:00,
2013-04-13 21:05:00,27.0,23.1,29.98,WNW,290,0.0,0.0,85,0.00,CLR,,0.07,0.0,WeatherDisplay:10.37,2013-04-14 02:05:00,
2013-04-13 21:10:00,26.8,22.9,29.98,WNW,290,0.0,0.0,85,0.00,CLR,,0.07,0.0,WeatherDisplay:10.37,2013-04-14 02:10:00,
2013-04-13 21:15:00,26.6,22.7,29.98,WNW,290,0.0,0.0,85,0.00,CLR,,0.07,0.0,WeatherDisplay:10.37,2013-04-14 02:15:00,
2013-04-13 21:20:00,26.5,22.9,29.98,WNW,290,0.0,0.0,86,0.00,CLR,,0.07,0.0,WeatherDisplay:10.37,2013-04-14 02:20:00,
2013-04-13 21:25:00,26.2,22.6,29.99,WNW,290,0.0,0.0,86,0.00,CLR,,0.07,0.0,WeatherDisplay:10.37,2013-04-14 02:25:00,
2013-04-13 21:30:00,26.1,22.5,29.99,WNW,290,0.0,0.0,86,0.00,CLR,,0.07,0.0,WeatherDisplay:10.37,2013-04-14 02:30:00,
2013-04-13 21:35:00,25.9,22.0,29.99,WNW,290,0.0,0.0,85,0.00,CLR,,0.07,0.0,WeatherDisplay:10.37,2013-04-14 02:35:00,
2013-04-13 21:40:00,25.7,22.1,29.99,WNW,290,0.0,0.0,86,0.00,CLR,,0.07,0.0,WeatherDisplay:10.37,2013-04-14 02:40:00,
2013-04-13 21:45:00,25.4,22.1,29.99,WNW,290,0.0,0.0,87,0.00,CLR,,0.07,0.0,WeatherDisplay:10.37,2013-04-14 02:45:00,
2013-04-13 21:50:00,25.2,21.9,29.99,WNW,290,0.0,0.0,87,0.00,CLR,,0.07,0.0,WeatherDisplay:10.37,2013-04-14 02:50:00,
2013-04-13 21:55:00,25.0,21.7,29.99,WNW,290,0.0,0.0,87,0.00,CLR,,0.07,0.0,WeatherDisplay:10.37,2013-04-14 02:55:00,
2013-04-13 22:00:00,24.8,21.5,29.99,WNW,290,0.0,0.0,87,0.00,CLR,,0.07,0.0,WeatherDisplay:10.37,2013-04-14 03:00:00,
2013-04-13 22:05:00,24.6,21.3,29.99,WNW,290,0.0,0.0,87,0.00,CLR,,0.07,0.0,WeatherDisplay:10.37,2013-04-14 03:05:00,
2013-04-13 22:10:00,24.5,21.2,30.00,WNW,290,0.0,0.0,87,0.00,CLR,,0.07,0.0,WeatherDisplay:10.37,2013-04-14 03:10:00,
2013-04-13 22:15:00,24.3,21.0,30.00,WNW,290,0.0,0.0,87,0.00,CLR,,0.07,0.0,WeatherDisplay:10.37,2013-04-14 03:15:00,
2013-04-13 22:20:00,24.0,20.7,30.00,WNW,290,0.0,0.0,87,0.00,CLR,,0.07,0.0,WeatherDisplay:10.37,2013-04-14 03:20:00,
2013-04-13 22:25:00,23.6,20.3,30.00,WNW,290,0.0,0.0,87,0.00,CLR,,0.07,0.0,WeatherDisplay:10.37,2013-04-14 03:25:00,
2013-04-13 22:30:00,23.5,20.5,30.00,WNW,290,0.0,0.0,88,0.00,CLR,,0.07,0.0,WeatherDisplay:10.37,2013-04-14 03:30:00,
2013-04-13 22:35:00,23.4,20.4,30.00,WNW,290,0.0,0.0,88,0.00,CLR,,0.07,0.0,WeatherDisplay:10.37,2013-04-14 03:35:00,
2013-04-13 22:40:00,23.2,20.2,30.01,WNW,290,0.0,0.0,88,0.00,CLR,,0.07,0.0,WeatherDisplay:10.37,2013-04-14 03:40:00,
2013-04-13 22:45:00,23.1,20.1,30.01,WNW,290,0.0,0.0,88,0.00,CLR,,0.07,0.0,WeatherDisplay:10.37,2013-04-14 03:45:00,
2013-04-13 22:50:00,23.1,20.1,30.01,WNW,290,0.0,0.0,88,0.00,CLR,,0.07,0.0,WeatherDisplay:10.37,2013-04-14 03:50:00,
2013-04-13 22:55:00,23.1,20.1,30.01,WNW,290,0.0,0.0,88,0.00,CLR,,0.07,0.0,WeatherDisplay:10.37,2013-04-14 03:55:00,
2013-04-13 23:00:00,22.9,19.9,30.02,WNW,290,0.0,0.0,88,0.00,CLR,,0.07,0.0,WeatherDisplay:10.37,2013-04-14 04:00:00,
2013-04-13 23:05:00,22.8,19.5,30.02,WNW,290,0.0,0.0,87,0.00,CLR,,0.07,0.0,WeatherDisplay:10.37,2013-04-14 04:05:00,
2013-04-13 23:10:00,22.7,19.4,30.02,WNW,290,0.0,0.0,87,0.00,CLR,,0.07,0.0,WeatherDisplay:10.37,2013-04-14 04:10:00,
2013-04-13 23:15:00,22.5,19.2,30.02,WNW,290,0.0,0.0,87,0.00,CLR,,0.07,0.0,WeatherDisplay:10.37,2013-04-14 04:15:00,
2013-04-13 23:20:00,22.5,19.2,30.02,WNW,290,0.0,0.0,87,0.00,CLR,,0.07,0.0,WeatherDisplay:10.37,2013-04-14 04:20:00,
2013-04-13 23:25:00,22.4,19.1,30.02,WNW,290,0.0,0.0,87,0.00,CLR,,0.07,0.0,WeatherDisplay:10.37,2013-04-14 04:25:00,
2013-04-13 23:30:00,22.5,19.2,30.02,WNW,290,0.0,0.0,87,0.00,CLR,,0.07,0.0,WeatherDisplay:10.37,2013-04-14 04:30:00,
2013-04-13 23:35:00,22.6,19.3,30.02,WNW,290,0.0,0.0,87,0.00,CLR,,0.07,0.0,WeatherDisplay:10.37,2013-04-14 04:35:00,
2013-04-13 23:40:00,22.5,18.9,30.03,WNW,290,0.0,0.0,86,0.00,CLR,,0.07,0.0,WeatherDisplay:10.37,2013-04-14 04:40:00,
2013-04-13 23:45:00,22.4,18.8,30.03,WNW,290,0.0,0.0,86,0.00,CLR,,0.07,0.0,WeatherDisplay:10.37,2013-04-14 04:45:00,
2013-04-13 23:50:00,22.3,18.7,30.03,WNW,290,0.0,0.0,86,0.00,CLR,,0.07,0.0,WeatherDisplay:10.37,2013-04-14 04:50:00,
2013-04-13 23:55:00,22.1,18.6,30.03,WNW,290,0.0,0.0,86,0.00,CLR,,0.07,0.0,WeatherDisplay:10.37,2013-04-14 04:55:00,